createdAt,value
2018-03-30T00:02:00.179Z,75.84
2018-03-30T00:04:28.503Z,75.88
2018-03-30T00:06:56.849Z,75.35
2018-03-30T00:09:36.789Z,75.90
2018-03-30T00:12:05.133Z,76.48
2018-03-30T00:14:33.467Z,75.58
2018-03-30T00:17:01.806Z,71.10
2018-03-30T00:19:30.126Z,73.19
2018-03-30T00:21:58.474Z,74.43
2018-03-30T00:24:26.794Z,74.72
2018-03-30T00:26:55.137Z,74.61
2018-03-30T00:29:23.463Z,74.66
2018-03-30T00:31:51.807Z,74.63
2018-03-30T00:34:20.135Z,74.37
2018-03-30T00:36:48.471Z,74.39
2018-03-30T00:39:16.794Z,74.88
2018-03-30T00:41:45.134Z,74.79
2018-03-30T00:44:13.513Z,74.56
2018-03-30T00:46:41.810Z,74.41
2018-03-30T00:49:10.130Z,74.44
2018-03-30T00:51:38.478Z,74.52
2018-03-30T00:54:06.802Z,74.73
2018-03-30T00:56:35.430Z,74.87
2018-03-30T00:59:03.749Z,74.74
2018-03-30T01:01:32.098Z,74.71
2018-03-30T01:04:00.422Z,74.95
2018-03-30T01:06:28.766Z,74.98
2018-03-30T01:08:57.091Z,75.65
2018-03-30T01:11:25.434Z,76.00
2018-03-30T01:13:53.766Z,75.86
2018-03-30T01:16:22.107Z,75.93
2018-03-30T01:18:50.430Z,75.79
2018-03-30T01:21:18.765Z,76.32
2018-03-30T01:23:47.097Z,76.70
2018-03-30T01:26:15.446Z,76.75
2018-03-30T01:28:43.770Z,76.71
2018-03-30T01:31:12.114Z,76.80
2018-03-30T01:33:40.434Z,75.89
2018-03-30T01:36:08.770Z,75.81
2018-03-30T01:38:37.101Z,76.71
2018-03-30T01:41:05.441Z,76.96
2018-03-30T01:43:33.765Z,77.11
2018-03-30T01:46:02.114Z,76.69
2018-03-30T01:48:30.437Z,75.54
2018-03-30T01:50:58.762Z,75.17
2018-03-30T01:53:27.105Z,75.21
2018-03-30T01:55:55.435Z,75.39
2018-03-30T01:58:24.470Z,76.08
2018-03-30T02:00:52.785Z,76.88
2018-03-30T02:03:21.131Z,77.07
2018-03-30T02:05:49.449Z,77.38
2018-03-30T02:08:17.798Z,77.51
2018-03-30T02:10:46.118Z,77.28
2018-03-30T02:13:14.467Z,76.84
2018-03-30T02:15:42.790Z,76.07
2018-03-30T02:18:11.142Z,76.11
2018-03-30T02:20:39.467Z,76.09
2018-03-30T02:23:07.814Z,76.06
2018-03-30T02:25:36.134Z,76.17
2018-03-30T02:28:04.474Z,75.96
2018-03-30T02:30:32.807Z,76.01
2018-03-30T02:33:01.150Z,75.88
2018-03-30T02:35:29.471Z,76.10
2018-03-30T02:37:57.816Z,76.75
2018-03-30T02:40:26.138Z,77.33
2018-03-30T02:42:54.481Z,77.38
2018-03-30T02:45:22.813Z,77.67
2018-03-30T02:47:51.156Z,77.62
2018-03-30T02:50:19.475Z,77.20
2018-03-30T02:52:47.818Z,76.71
2018-03-30T02:55:16.143Z,76.76
2018-03-30T02:57:44.495Z,77.02
2018-03-30T03:00:12.814Z,77.02
2018-03-30T03:02:41.163Z,77.43
2018-03-30T03:05:09.487Z,77.31
2018-03-30T03:07:37.827Z,76.97
2018-03-30T03:10:06.146Z,76.84
2018-03-30T03:12:34.486Z,76.99
2018-03-30T03:15:02.818Z,77.11
2018-03-30T03:17:31.154Z,77.19
2018-03-30T03:19:59.472Z,77.04
2018-03-30T03:22:27.814Z,76.86
2018-03-30T03:24:56.138Z,77.10
2018-03-30T03:27:24.482Z,77.27
2018-03-30T03:29:52.805Z,77.11
2018-03-30T03:32:21.146Z,77.25
2018-03-30T03:34:49.466Z,77.63
2018-03-30T03:37:17.810Z,77.59
2018-03-30T03:39:46.137Z,77.47
2018-03-30T03:42:14.473Z,77.40
2018-03-30T03:44:42.794Z,77.93
2018-03-30T03:47:11.147Z,78.30
2018-03-30T03:49:39.473Z,78.58
2018-03-30T03:52:07.790Z,78.47
2018-03-30T03:54:36.138Z,78.55
2018-03-30T03:57:04.471Z,78.27
2018-03-30T03:59:32.818Z,77.96
2018-03-30T04:02:01.139Z,78.01
2018-03-30T04:04:29.476Z,78.09
2018-03-30T04:06:57.798Z,78.42
2018-03-30T04:09:26.145Z,78.32
2018-03-30T04:11:54.477Z,78.37
2018-03-30T04:14:22.810Z,78.22
2018-03-30T04:16:51.166Z,78.14
2018-03-30T04:19:19.537Z,78.35
2018-03-30T04:21:47.873Z,78.30
2018-03-30T04:24:16.242Z,78.16
2018-03-30T04:26:44.567Z,77.99
2018-03-30T04:29:12.915Z,77.75
2018-03-30T04:31:41.238Z,77.90
2018-03-30T04:34:09.589Z,78.10
2018-03-30T04:36:37.906Z,78.51
2018-03-30T04:39:06.254Z,78.67
2018-03-30T04:41:34.580Z,78.80
2018-03-30T04:44:02.918Z,78.90
2018-03-30T04:46:31.294Z,78.34
2018-03-30T04:48:59.639Z,77.65
2018-03-30T04:51:27.966Z,77.42
2018-03-30T04:53:56.314Z,77.63
2018-03-30T04:56:24.634Z,77.47
2018-03-30T04:58:52.973Z,77.67
2018-03-30T05:01:21.302Z,77.67
2018-03-30T05:03:49.650Z,77.95
2018-03-30T05:06:17.969Z,77.98
2018-03-30T05:08:46.314Z,78.21
2018-03-30T05:11:14.638Z,78.31
2018-03-30T05:13:42.975Z,78.42
2018-03-30T05:16:11.297Z,78.69
2018-03-30T05:18:39.642Z,78.96
2018-03-30T05:21:07.958Z,79.08
2018-03-30T05:23:36.301Z,79.22
2018-03-30T05:26:04.626Z,79.35
2018-03-30T05:28:33.065Z,79.19
2018-03-30T05:31:01.382Z,79.21
2018-03-30T05:33:29.735Z,79.08
2018-03-30T05:35:58.057Z,79.01
2018-03-30T05:38:26.398Z,78.91
2018-03-30T05:40:54.714Z,79.00
2018-03-30T05:43:23.049Z,78.75
2018-03-30T05:45:51.373Z,78.88
2018-03-30T05:48:19.731Z,78.91
2018-03-30T05:50:48.054Z,78.93
2018-03-30T05:53:16.378Z,78.99
2018-03-30T05:55:44.721Z,79.07
2018-03-30T05:58:13.052Z,79.00
2018-03-30T06:00:41.395Z,79.14
2018-03-30T06:03:09.718Z,78.96
2018-03-30T06:05:38.062Z,78.93
2018-03-30T06:08:06.425Z,79.14
2018-03-30T06:10:34.739Z,78.75
2018-03-30T06:13:03.042Z,78.89
2018-03-30T06:15:31.381Z,79.07
2018-03-30T06:17:59.703Z,79.12
2018-03-30T06:20:28.042Z,79.17
2018-03-30T06:22:56.437Z,78.93
2018-03-30T06:25:24.757Z,78.83
2018-03-30T06:27:53.078Z,78.76
2018-03-30T06:30:21.428Z,78.67
2018-03-30T06:32:49.742Z,78.81
2018-03-30T06:35:18.082Z,79.23
2018-03-30T06:37:46.410Z,79.17
2018-03-30T06:40:14.741Z,79.07
2018-03-30T06:42:43.070Z,78.93
2018-03-30T06:45:12.260Z,79.01
2018-03-30T06:47:40.577Z,79.05
2018-03-30T06:50:08.927Z,78.76
2018-03-30T06:52:37.258Z,78.45
2018-03-30T06:55:05.607Z,78.26
2018-03-30T06:57:33.938Z,78.39
2018-03-30T07:00:02.294Z,78.43
2018-03-30T07:02:30.618Z,78.24
2018-03-30T07:04:58.963Z,78.36
2018-03-30T07:07:27.290Z,78.34
2018-03-30T07:09:55.640Z,79.00
2018-03-30T07:12:23.965Z,78.14
2018-03-30T07:14:52.322Z,78.14
2018-03-30T07:17:21.649Z,78.36
2018-03-30T07:19:49.990Z,78.55
2018-03-30T07:22:18.682Z,78.42
2018-03-30T07:24:47.030Z,78.52
2018-03-30T07:27:15.354Z,78.63
2018-03-30T07:29:43.707Z,78.98
2018-03-30T07:32:12.026Z,78.94
2018-03-30T07:34:40.384Z,78.66
2018-03-30T07:37:08.722Z,78.66
2018-03-30T07:39:37.071Z,78.40
2018-03-30T07:42:05.443Z,78.61
2018-03-30T07:44:33.810Z,78.51
2018-03-30T07:47:02.138Z,78.76
2018-03-30T07:49:30.497Z,78.68
2018-03-30T07:51:58.825Z,78.13
2018-03-30T07:54:27.157Z,77.85
2018-03-30T07:56:55.628Z,78.21
2018-03-30T07:59:23.965Z,78.32
2018-03-30T08:01:52.973Z,77.96
2018-03-30T08:04:21.306Z,77.86
2018-03-30T08:06:50.664Z,78.14
2018-03-30T08:09:19.001Z,78.25
2018-03-30T08:11:47.375Z,78.17
2018-03-30T08:14:15.731Z,78.26
2018-03-30T08:16:44.094Z,78.71
2018-03-30T08:19:12.415Z,78.79
2018-03-30T08:21:40.776Z,78.33
2018-03-30T08:24:09.102Z,78.01
2018-03-30T08:26:39.406Z,77.54
2018-03-30T08:29:07.713Z,77.86
2018-03-30T08:31:36.107Z,77.79
2018-03-30T08:34:04.436Z,75.91
2018-03-30T08:36:32.797Z,74.54
2018-03-30T08:39:01.115Z,74.91
2018-03-30T08:41:29.467Z,74.03
2018-03-30T08:43:57.819Z,73.36
2018-03-30T08:46:26.159Z,73.17
2018-03-30T08:48:54.483Z,73.06
2018-03-30T08:51:22.844Z,73.34
2018-03-30T08:53:51.174Z,73.39
2018-03-30T08:56:19.531Z,73.21
2018-03-30T08:58:47.858Z,73.35
2018-03-30T09:01:16.217Z,73.05
2018-03-30T09:03:44.542Z,73.17
2018-03-30T09:06:13.123Z,73.21
2018-03-30T09:08:41.454Z,72.90
2018-03-30T09:11:09.802Z,73.52
2018-03-30T09:13:38.130Z,73.45
2018-03-30T09:16:06.494Z,73.45
2018-03-30T09:18:34.822Z,73.57
2018-03-30T09:21:03.170Z,73.58
2018-03-30T09:23:31.494Z,73.82
2018-03-30T09:25:59.852Z,70.86
2018-03-30T09:28:28.186Z,69.56
2018-03-30T09:30:56.542Z,66.38
2018-03-30T09:33:27.645Z,65.74
2018-03-30T09:35:55.991Z,64.27
2018-03-30T09:38:24.320Z,63.53
2018-03-30T09:40:52.666Z,62.93
2018-03-30T09:43:21.003Z,63.22
2018-03-30T09:45:49.350Z,62.20
2018-03-30T09:48:17.683Z,61.88
2018-03-30T09:50:46.027Z,62.27
2018-03-30T09:53:14.628Z,62.07
2018-03-30T09:55:43.313Z,61.86
2018-03-30T09:58:11.958Z,62.04
2018-03-30T10:00:44.538Z,61.03
2018-03-30T10:03:13.347Z,58.83
2018-03-30T10:05:42.069Z,60.63
2018-03-30T10:08:10.836Z,59.79
2018-03-30T10:10:39.253Z,58.12
2018-03-30T10:13:07.591Z,58.84
2018-03-30T10:15:35.923Z,57.83
2018-03-30T10:18:04.268Z,57.64
2018-03-30T10:20:32.598Z,56.28
2018-03-30T10:23:00.954Z,56.80
2018-03-30T10:25:29.281Z,56.18
2018-03-30T10:27:57.630Z,56.03
2018-03-30T10:30:25.951Z,55.21
2018-03-30T10:32:54.294Z,56.09
2018-03-30T10:35:22.606Z,55.13
2018-03-30T10:37:50.960Z,54.92
2018-03-30T10:40:19.284Z,54.07
2018-03-30T10:42:47.622Z,54.23
2018-03-30T10:45:15.950Z,53.56
2018-03-30T10:47:44.293Z,50.44
2018-03-30T10:50:12.619Z,51.72
2018-03-30T10:52:40.965Z,52.64
2018-03-30T10:55:09.270Z,52.51
2018-03-30T10:57:37.610Z,53.80
2018-03-30T11:00:05.948Z,55.13
2018-03-30T11:02:34.294Z,56.09
2018-03-30T11:05:02.622Z,54.96
2018-03-30T11:07:30.966Z,54.46
2018-03-30T11:09:59.294Z,54.40
2018-03-30T11:12:27.649Z,54.83
2018-03-30T11:14:55.974Z,53.87
2018-03-30T11:17:24.322Z,53.47
2018-03-30T11:19:52.645Z,52.57
2018-03-30T11:22:20.994Z,52.86
2018-03-30T11:24:49.317Z,52.13
2018-03-30T11:27:17.658Z,52.96
2018-03-30T11:29:45.993Z,51.95
2018-03-30T11:32:14.330Z,50.97
2018-03-30T11:34:42.654Z,50.97
2018-03-30T11:37:10.998Z,52.78
2018-03-30T11:39:39.327Z,51.51
2018-03-30T11:42:07.680Z,51.71
2018-03-30T11:44:36.302Z,51.60
2018-03-30T11:47:04.642Z,52.01
2018-03-30T11:49:32.962Z,51.82
2018-03-30T11:52:01.318Z,50.97
2018-03-30T11:54:29.634Z,50.17
2018-03-30T11:56:57.984Z,50.15
2018-03-30T11:59:26.298Z,49.67
2018-03-30T12:01:54.646Z,49.72
2018-03-30T12:04:23.199Z,50.08
2018-03-30T12:06:51.558Z,49.55
2018-03-30T12:09:19.886Z,50.52
2018-03-30T12:11:48.222Z,50.32
2018-03-30T12:14:16.566Z,47.93
2018-03-30T12:16:45.853Z,48.29
2018-03-30T12:19:14.193Z,47.26
2018-03-30T12:21:42.505Z,48.11
2018-03-30T12:24:11.115Z,48.37
2018-03-30T12:26:39.434Z,46.62
2018-03-30T12:29:07.761Z,46.93
2018-03-30T12:31:36.086Z,46.48
2018-03-30T12:34:04.429Z,46.35
2018-03-30T12:36:32.753Z,45.21
2018-03-30T12:39:01.089Z,46.02
2018-03-30T12:41:29.410Z,46.26
2018-03-30T12:43:57.907Z,44.92
2018-03-30T12:46:26.231Z,44.81
2018-03-30T12:48:54.571Z,45.21
2018-03-30T12:51:22.902Z,43.98
2018-03-30T12:53:51.243Z,43.86
2018-03-30T12:56:20.455Z,44.18
2018-03-30T12:58:48.798Z,44.42
2018-03-30T13:01:17.114Z,43.58
2018-03-30T13:03:45.510Z,43.21
2018-03-30T13:06:14.733Z,43.34
2018-03-30T13:08:43.055Z,43.03
2018-03-30T13:11:11.373Z,42.56
2018-03-30T13:13:39.713Z,41.98
2018-03-30T13:16:08.031Z,43.19
2018-03-30T13:18:36.370Z,42.65
2018-03-30T13:21:04.688Z,43.59
2018-03-30T13:23:33.243Z,42.03
2018-03-30T13:26:01.561Z,40.66
2018-03-30T13:28:29.894Z,42.00
2018-03-30T13:30:58.210Z,41.76
2018-03-30T13:33:26.554Z,42.48
2018-03-30T13:35:54.878Z,42.09
2018-03-30T13:38:23.214Z,42.40
2018-03-30T13:40:51.538Z,41.24
2018-03-30T13:43:20.794Z,41.54
2018-03-30T13:45:49.127Z,41.26
2018-03-30T13:48:17.481Z,40.76
2018-03-30T13:50:49.535Z,41.09
2018-03-30T13:56:21.302Z,40.71
2018-03-30T13:59:01.399Z,40.87
2018-03-30T14:01:35.324Z,41.22
2018-03-30T14:04:08.318Z,40.90
2018-03-30T14:09:47.502Z,40.11
2018-03-30T14:15:14.172Z,40.69
2018-03-30T14:20:48.151Z,41.17
2018-03-30T14:23:22.007Z,42.10
2018-03-30T14:25:51.174Z,42.31
2018-03-30T14:28:29.231Z,42.26
2018-03-30T14:31:04.346Z,41.65
2018-03-30T14:33:33.410Z,42.39
2018-03-30T14:36:08.548Z,42.22
2018-03-30T14:38:36.907Z,43.49
2018-03-30T14:41:05.248Z,47.35
2018-03-30T14:43:37.422Z,49.46
2018-03-30T14:46:25.366Z,50.57
2018-03-30T14:48:58.078Z,51.44
2018-03-30T14:54:57.090Z,52.71
2018-03-30T14:57:38.917Z,52.60
2018-03-30T15:03:08.145Z,53.71
2018-03-30T15:05:43.138Z,53.92
2018-03-30T15:08:17.793Z,54.03
2018-03-30T15:10:51.621Z,54.60
2018-03-30T15:13:20.921Z,54.99
2018-03-30T15:15:54.039Z,54.22
2018-03-30T15:21:26.964Z,53.46
2018-03-30T15:23:56.064Z,52.67
2018-03-30T15:26:27.283Z,53.20
2018-03-30T15:28:59.330Z,53.61
2018-03-30T15:31:29.242Z,53.68
2018-03-30T15:33:59.091Z,54.30
2018-03-30T15:36:33.605Z,53.89
2018-03-30T15:39:02.038Z,54.18
2018-03-30T15:41:30.374Z,54.34
2018-03-30T15:43:58.804Z,53.98
2018-03-30T15:46:36.995Z,54.20
2018-03-30T15:49:05.343Z,54.44
2018-03-30T15:51:37.434Z,54.77
2018-03-30T15:54:05.254Z,55.01
2018-03-30T15:56:35.382Z,54.94
2018-03-30T15:59:03.750Z,54.73
2018-03-30T16:01:32.092Z,54.91
2018-03-30T16:04:00.418Z,53.70
2018-03-30T16:06:29.698Z,53.71
2018-03-30T16:08:58.026Z,53.54
2018-03-30T16:11:27.250Z,54.19
2018-03-30T16:13:55.578Z,53.97
2018-03-30T16:16:24.834Z,54.30
2018-03-30T16:18:56.469Z,53.85
2018-03-30T16:21:24.259Z,54.13
2018-03-30T16:23:52.060Z,54.43
2018-03-30T16:26:19.863Z,54.51
2018-03-30T16:28:47.671Z,54.72
2018-03-30T16:31:15.475Z,54.84
2018-03-30T16:33:43.262Z,54.83
2018-03-30T16:36:11.214Z,55.04
2018-03-30T16:38:39.012Z,55.19
2018-03-30T16:41:06.542Z,55.24
2018-03-30T16:43:34.062Z,55.31
2018-03-30T16:46:01.586Z,55.35
2018-03-30T16:48:29.098Z,55.48
2018-03-30T16:50:56.617Z,55.83
2018-03-30T16:53:24.126Z,56.00
2018-03-30T16:55:51.659Z,56.02
2018-03-30T16:58:19.174Z,56.19
2018-03-30T17:00:46.712Z,56.07
2018-03-30T17:03:14.218Z,56.27
2018-03-30T17:05:41.751Z,56.42
2018-03-30T17:08:09.256Z,56.28
2018-03-30T17:10:36.786Z,56.53
2018-03-30T17:13:04.290Z,56.64
2018-03-30T17:15:31.823Z,56.85
2018-03-30T17:17:59.339Z,56.73
2018-03-30T17:20:26.866Z,56.94
2018-03-30T17:22:54.378Z,56.84
2018-03-30T17:25:21.924Z,57.07
2018-03-30T17:27:49.438Z,57.47
2018-03-30T17:30:17.753Z,57.32
2018-03-30T17:32:45.222Z,57.50
2018-03-30T17:35:12.749Z,57.54
2018-03-30T17:37:40.253Z,57.36
2018-03-30T17:40:07.794Z,57.52
2018-03-30T17:42:35.302Z,57.73
2018-03-30T17:45:02.818Z,57.24
2018-03-30T17:47:30.343Z,57.15
2018-03-30T17:49:57.856Z,56.94
2018-03-30T17:52:25.386Z,57.38
2018-03-30T17:54:52.922Z,57.69
2018-03-30T17:57:20.458Z,57.60
2018-03-30T17:59:47.975Z,57.79
2018-03-30T18:02:16.083Z,57.84
2018-03-30T18:04:43.567Z,57.95
2018-03-30T18:07:11.189Z,57.98
2018-03-30T18:09:38.703Z,58.17
2018-03-30T18:12:06.238Z,58.35
2018-03-30T18:14:33.751Z,58.49
2018-03-30T18:17:01.442Z,58.36
2018-03-30T18:19:28.940Z,58.58
2018-03-30T18:21:56.466Z,58.68
2018-03-30T18:24:23.976Z,58.80
2018-03-30T18:26:51.507Z,58.50
2018-03-30T18:29:19.022Z,58.70
2018-03-30T18:31:46.562Z,58.68
2018-03-30T18:34:14.197Z,58.76
2018-03-30T18:36:41.901Z,58.90
2018-03-30T18:39:09.582Z,58.91
2018-03-30T18:41:37.324Z,58.93
2018-03-30T18:44:04.862Z,58.80
2018-03-30T18:46:32.404Z,59.00
2018-03-30T18:48:59.918Z,59.24
2018-03-30T18:51:27.455Z,59.28
2018-03-30T18:53:55.032Z,59.42
2018-03-30T18:56:22.568Z,59.35
2018-03-30T18:58:50.078Z,59.46
2018-03-30T19:01:17.602Z,59.35
2018-03-30T19:03:45.119Z,59.41
2018-03-30T19:06:12.668Z,59.47
2018-03-30T19:08:40.818Z,59.53
2018-03-30T19:11:08.354Z,59.17
2018-03-30T19:13:35.866Z,59.43
2018-03-30T19:16:03.431Z,59.66
2018-03-30T19:18:30.945Z,59.70
2018-03-30T19:20:58.525Z,59.69
2018-03-30T19:23:26.030Z,59.97
2018-03-30T19:25:53.551Z,60.08
2018-03-30T19:28:21.099Z,60.17
2018-03-30T19:30:48.632Z,60.22
2018-03-30T19:33:16.163Z,60.42
2018-03-30T19:35:43.694Z,60.37
2018-03-30T19:38:11.223Z,60.81
2018-03-30T19:40:38.741Z,61.22
2018-03-30T19:43:06.284Z,61.37
2018-03-30T19:45:33.799Z,61.27
2018-03-30T19:48:01.406Z,61.38
2018-03-30T19:50:28.918Z,61.57
2018-03-30T19:52:56.459Z,61.62
2018-03-30T19:55:23.990Z,61.73
2018-03-30T19:57:51.559Z,61.79
2018-03-30T20:00:19.070Z,61.72
2018-03-30T20:02:46.649Z,61.67
2018-03-30T20:05:14.185Z,61.66
2018-03-30T20:07:41.761Z,61.70
2018-03-30T20:10:10.262Z,61.59
2018-03-30T20:12:37.807Z,61.62
2018-03-30T20:15:05.340Z,61.69
2018-03-30T20:17:32.863Z,61.59
2018-03-30T20:20:00.386Z,61.68
2018-03-30T20:22:27.915Z,62.08
2018-03-30T20:24:55.425Z,62.29
2018-03-30T20:27:22.962Z,62.32
2018-03-30T20:29:50.521Z,62.26
2018-03-30T20:32:18.065Z,62.15
2018-03-30T20:34:45.584Z,62.20
2018-03-30T20:37:14.097Z,62.55
2018-03-30T20:39:41.612Z,62.74
2018-03-30T20:42:09.151Z,62.63
2018-03-30T20:44:36.667Z,62.74
2018-03-30T20:47:04.203Z,62.84
2018-03-30T20:49:31.719Z,62.96
2018-03-30T20:51:59.261Z,63.04
2018-03-30T20:54:26.770Z,62.98
2018-03-30T20:56:54.309Z,63.20
2018-03-30T20:59:22.574Z,63.29
2018-03-30T21:01:50.894Z,63.36
2018-03-30T21:04:18.420Z,63.56
2018-03-30T21:06:46.956Z,63.63
2018-03-30T21:09:15.516Z,63.83
2018-03-30T21:11:43.031Z,63.80
2018-03-30T21:14:10.592Z,63.76
2018-03-30T21:16:38.077Z,63.90
2018-03-30T21:19:05.615Z,64.12
2018-03-30T21:21:33.139Z,64.11
2018-03-30T21:24:00.686Z,64.06
2018-03-30T21:26:28.199Z,63.97
2018-03-30T21:28:55.763Z,63.79
2018-03-30T21:31:23.283Z,63.80
2018-03-30T21:33:51.706Z,63.88
2018-03-30T21:36:20.285Z,64.07
2018-03-30T21:38:48.779Z,64.24
2018-03-30T21:41:16.311Z,64.29
2018-03-30T21:43:43.834Z,64.37
2018-03-30T21:46:11.515Z,64.33
2018-03-30T21:48:39.059Z,64.30
2018-03-30T21:51:06.551Z,64.34
2018-03-30T21:53:34.087Z,64.42
2018-03-30T21:56:01.603Z,64.64
2018-03-30T21:58:29.153Z,64.53
2018-03-30T22:00:56.663Z,64.55
2018-03-30T22:03:24.193Z,64.74
2018-03-30T22:05:52.078Z,64.61
2018-03-30T22:08:19.606Z,64.64
2018-03-30T22:10:47.123Z,64.61
2018-03-30T22:13:14.662Z,64.75
2018-03-30T22:15:42.161Z,64.75
2018-03-30T22:18:09.707Z,64.66
2018-03-30T22:20:37.210Z,64.80
2018-03-30T22:23:04.740Z,64.83
2018-03-30T22:25:32.285Z,64.88
2018-03-30T22:27:59.821Z,64.89
2018-03-30T22:30:29.136Z,64.90
2018-03-30T22:32:57.275Z,65.00
2018-03-30T22:35:24.964Z,65.09
2018-03-30T22:37:52.795Z,65.05
2018-03-30T22:40:20.329Z,64.92
2018-03-30T22:42:47.841Z,64.85
2018-03-30T22:45:15.490Z,64.95
2018-03-30T22:47:43.002Z,65.05
2018-03-30T22:50:10.530Z,64.91
2018-03-30T22:52:38.039Z,65.08
2018-03-30T22:55:05.561Z,65.17
2018-03-30T22:57:33.099Z,64.85
2018-03-30T23:00:00.705Z,64.90
2018-03-30T23:02:28.202Z,64.94
2018-03-30T23:04:55.733Z,65.14
2018-03-30T23:07:23.524Z,64.85
2018-03-30T23:09:51.331Z,64.71
2018-03-30T23:12:19.118Z,64.75
2018-03-30T23:14:46.935Z,64.85
2018-03-30T23:17:14.718Z,64.81
2018-03-30T23:19:42.578Z,64.82
2018-03-30T23:22:10.319Z,64.86
2018-03-30T23:24:38.130Z,65.08
2018-03-30T23:27:05.913Z,65.01
2018-03-30T23:29:33.734Z,64.64
2018-03-30T23:32:01.524Z,64.50
2018-03-30T23:34:29.339Z,64.59
2018-03-30T23:36:57.130Z,64.64
2018-03-30T23:39:24.967Z,64.67
2018-03-30T23:41:52.750Z,64.71
2018-03-30T23:44:20.560Z,64.36
2018-03-30T23:46:48.338Z,64.38
2018-03-30T23:49:16.146Z,64.50
2018-03-30T23:51:43.933Z,64.50
2018-03-30T23:54:11.746Z,64.19
2018-03-30T23:56:39.544Z,63.95
2018-03-30T23:59:07.365Z,63.91
